METAR AND TAF INFORMATION
METAR FOR UTTT
ADDS - METARS form results

(2015 UTC 20 June 2019)
Data provider http://aviationweather.gov/metar/data/
 
METAR text: UTTT 202000Z 06006KT CAVOK 22/10 Q1007 R08R/CLRD70 NOSIG
Conditions at: UTTT (TASKENT/YUZNI , UZ) observed 2000 UTC 20 June 2019
Temperature: 22.0°C (72°F)
Dewpoint: 10.0°C (50°F) [RH = 46%]
Pressure (altimeter): 29.73 inches Hg (1007.0 mb)
Winds: from the ENE (60 degrees) at 7 MPH (6 knots; 3.1 m/s)
Visibility: 6 or more miles (10+ km)
Ceiling: ceiling and visibility are OK
Clouds: unknown
Weather: no significant weather observed at this time

METAR text: UTTT 201930Z 07006KT CAVOK 22/10 Q1007 R08R/CLRD70 NOSIG
Conditions at: UTTT (TASKENT/YUZNI , UZ) observed 1930 UTC 20 June 2019
Temperature: 22.0°C (72°F)
Dewpoint: 10.0°C (50°F) [RH = 46%]
Pressure (altimeter): 29.73 inches Hg (1007.0 mb)
Winds: from the ENE (70 degrees) at 7 MPH (6 knots; 3.1 m/s)
Visibility: 6 or more miles (10+ km)
Ceiling: ceiling and visibility are OK
Clouds: unknown
Weather: no significant weather observed at this time

Forecast for: UTTT (TASKENT/YUZNI , UZ)
Text: TAF UTTT 201700Z 2018/2118 07008KT 7000 NSC TX35/2110Z
Forecast period: 1800 UTC 20 June 2019 to 1800 UTC 21 June 2019
Forecast type: FROM: standard forecast or significant change
Winds: from the ENE (70 degrees) at 9 MPH (8 knots; 4.1 m/s)
Visibility: 4 miles (7 km)
Ceiling: unknown
Clouds: missing
Weather: no significant weather forecast for this period
Text: TEMPO 2107/2116 22012KT FEW060CB
Forecast period: 0700 to 1600 UTC 21 June 2019
Forecast type: TEMPORARY: The following changes expected for less than half the time period
Winds: from the SW (220 degrees) at 14 MPH (12 knots; 6.2 m/s)
Visibility: missing
Ceiling: at least 12,000 feet AGL
Clouds: few clouds at 6000 feet AGL
Weather: no significant weather forecast for this period

 AIRPORT MAP

 RUNWAY INFORMATION
Runway 08L Runway length 13123 ft Runway width 197 ft
Runway elevation 1368 ft Runway displaced threshold 820 ft Runway heading 84
Runway 26R Runway length 13123 ft Runway width 197 ft
Runway elevation 1414 ft Runway displaced threshold 820 ft Runway heading 264
Runway 08R Runway length 12812 ft Runway width 148 ft
Runway elevation 1368 ft Runway displaced threshold 650 ft Runway heading 81
Runway 26L Runway length 12812 ft Runway width 148 ft
Runway elevation 1411 ft Runway displaced threshold 680 ft Runway heading 261

 AIRPORT FREQUENCIES
Type APP Name TASHKENT A Frequency 125.2 MHZ
Type ATIS Name ATIS Frequency 126.8 MHZ
Type CLD Name TASHKENT D Frequency 129.4 MHZ
Type GCA Name TASHKENT K Frequency 119.4 MHZ
Type GND Name TASHKENT G Frequency 121.7 MHZ
Type TWR Name TASHKENT T Frequency 120.4 MHZ

 AIRPORT NEAR NAVIGATION AIDS
Type NDB Name Tashkent Frequency 285 KHZ
Type NDB Name Tashkent Frequency 285 KHZ
Type VOR-DME Name Tashkent Frequency 113200 KHZ
Type NDB Name Tashkent Frequency 340 KHZ



Powered by Virtual Airlines Manager [v2.6.2]